Aviation Digital Data Service (ADDS)

Output produced by METARs form (0131 UTC 22 October 2014)
found at http://www.aviationweather.gov/adds/metars/
 
KTHV 220053Z AUTO 28006KT 8SM -RA OVC070 12/10 A2990 RMK AO2 RAB21 SLP129 P0000 T01170100
KTHV 212353Z AUTO 28005KT 10SM OVC110 12/10 A2988 RMK AO2 SLP122 60002 T01170100 10189 20117 51019
KTHV 212253Z AUTO 28004KT 10SM FEW060 OVC090 12/10 A2987 RMK AO2 RAE39 SLP117 P0001 T01220100
KTHV 212153Z AUTO 24003KT 6SM -RA FEW049 OVC060 13/11 A2985 RMK AO2 RAB33 SLP112 P0001 T01330106
KTHV 212053Z AUTO 34004KT 10SM FEW065 BKN100 17/08 A2983 RMK AO2 LTG DSNT W SLP102 T01670078 55001
KTHV 211953Z AUTO 36004KT 10SM SCT039 BKN090 18/08 A2982 RMK AO2 SLP098 T01780083
KTHV 211853Z AUTO VRB04KT 10SM FEW090 18/09 A2982 RMK AO2 SLP098 T01780094
KTHV 211753Z AUTO VRB04KT 10SM FEW029 FEW036 BKN048 18/10 A2983 RMK AO2 SLP102 T01780100 10183 20061 58013
KTHV 211653Z AUTO 33007KT 10SM FEW029 BKN038 16/10 A2985 RMK AO2 SLP108 T01610100
KTHV 211553Z AUTO 26007KT 10SM FEW041 SCT120 17/09 A2986 RMK AO2 SLP113 T01670094
KTHV 211453Z AUTO 28004KT 10SM SCT043 BKN110 14/11 A2987 RMK AO2 SLP116 T01440106 50001
KTHV 211353Z AUTO 00000KT 9SM OVC047 13/11 A2987 RMK AO2 SLP118 T01330111
KTHV 211253Z AUTO 00000KT 5SM BR SCT043 SCT055 09/09 A2987 RMK AO2 SLP119 T00940094
KTHV 211240Z AUTO 00000KT 4SM BR BKN041 BKN049 09/09 A2987 RMK AO2 T00940089
KTHV 211232Z AUTO 00000KT 2 1/2SM BR FEW002 OVC041 09/08 A2987 RMK AO2 T00890083
KTHV 211228Z AUTO 00000KT 1SM BR SCT002 OVC039 09/08 A2987 RMK AO2 T00890083
KTHV 211153Z AUTO 00000KT M1/4SM FG VV002 07/07 A2986 RMK AO2 SLP116 60001 70005 T00670067 10117 20061 53004
KTHV 211053Z AUTO 00000KT 1/2SM FG VV001 07/06 A2986 RMK AO2 SLP113 T00670061
KTHV 211002Z AUTO 00000KT 1/4SM FG VV002 07/07 A2985 RMK AO2 T00720072
KTHV 210953Z AUTO 00000KT 1/4SM FG SCT002 SCT085 08/07 A2985 RMK AO2 SLP110 T00780072
KTHV 210946Z AUTO 00000KT 3/4SM BR FEW085 08/08 A2985 RMK AO2 VIS 1/4V4 T00830083
KTHV 210941Z AUTO 00000KT 1 3/4SM BR SCT085 09/08 A2985 RMK AO2 T00890083
KTHV 210853Z AUTO 00000KT 7SM OVC065 11/10 A2985 RMK AO2 RAB0756E08 SLP111 P0001 60001 T01060100 56013
KTHV 210753Z AUTO 00000KT 9SM OVC075 11/10 A2986 RMK AO2 SLP112 T01110100
KTHV 210653Z AUTO 00000KT 9SM BKN060 OVC070 11/11 A2988 RMK AO2 SLP121 T01110106
KTHV 210553Z AUTO 15003KT 10SM OVC070 11/11 A2989 RMK AO2 RAE22 SLP124 P0000 60004 T01110106 10133 20111 58014
KTHV 210453Z AUTO 00000KT 5SM -RA BR FEW049 OVC060 12/10 A2991 RMK AO2 RAB11 SLP132 P0004 T01220100 401781006
KTHV 210353Z AUTO 00000KT 10SM FEW049 BKN085 OVC110 13/09 A2992 RMK AO2 SLP134 T01280094
KTHV 210253Z AUTO 19005KT 10SM OVC085 13/09 A2993 RMK AO2 RAB0156E25 SLP138 P0000 60000 T01280094 58004
KTHV 210153Z AUTO 19005KT 10SM OVC070 13/08 A2995 RMK AO2 RAB17E36 SLP144 P0000 T01330078
KTHV 210053Z AUTO 00000KT 10SM SCT075 OVC090 11/08 A2995 RMK AO2 SLP145 T01110078
KTHV 202353Z AUTO 00000KT 10SM BKN080 OVC100 12/08 A2994 RMK AO2 SLP144 T01170078 10178 20100 56001
KTHV 202253Z AUTO 00000KT 10SM CLR 11/06 A2995 RMK AO2 SLP146 T01060061
KTHV 202153Z AUTO 00000KT 10SM CLR 15/06 A2994 RMK AO2 SLP143 T01500056
KTHV 202053Z AUTO 27005KT 10SM CLR 17/05 A2995 RMK AO2 SLP144 T01670050 56011
KTHV 201953Z AUTO 22006KT 10SM CLR 17/04 A2995 RMK AO2 SLP144 T01720039
KTHV 201853Z AUTO 19008KT 140V210 10SM CLR 17/04 A2995 RMK AO2 SLP145 T01720039
KTHV 201753Z AUTO 20009KT 170V240 10SM CLR 17/03 A2998 RMK AO2 SLP155 T01670033 10167 20006 58030
KTHV 201653Z AUTO 20007KT 10SM CLR 16/03 A3001 RMK AO2 SLP166 T01560033
KTHV 201553Z AUTO 19013G18KT 10SM CLR 14/01 A3005 RMK AO2 SLP179 T01390011
KTHV 201453Z AUTO 19007KT 10SM CLR 12/02 A3007 RMK AO2 SLP187 T01220022 58011
KTHV 201353Z AUTO 20005KT 10SM CLR 09/03 A3010 RMK AO2 SLP198 T00940028